sensor_id;sensor_type;location;lat;lon;timestamp;P1;durP1;ratioP1;P2;durP2;ratioP2
18021;SDS011;9136;48.822;7.966;2023-09-30T00:01:15;18.88;;;17.98;;
18021;SDS011;9136;48.822;7.966;2023-09-30T00:04:22;17.80;;;17.00;;
18021;SDS011;9136;48.822;7.966;2023-09-30T00:07:12;17.75;;;16.95;;
18021;SDS011;9136;48.822;7.966;2023-09-30T00:10:16;17.35;;;16.55;;
18021;SDS011;9136;48.822;7.966;2023-09-30T00:13:18;16.90;;;16.15;;
18021;SDS011;9136;48.822;7.966;2023-09-30T00:16:52;16.17;;;15.48;;
18021;SDS011;9136;48.822;7.966;2023-09-30T00:19:50;17.10;;;16.35;;
18021;SDS011;9136;48.822;7.966;2023-09-30T00:22:56;16.88;;;16.08;;
18021;SDS011;9136;48.822;7.966;2023-09-30T00:25:52;17.63;;;16.63;;
18021;SDS011;9136;48.822;7.966;2023-09-30T00:29:03;16.45;;;15.70;;
18021;SDS011;9136;48.822;7.966;2023-09-30T00:34:15;17.75;;;16.95;;
18021;SDS011;9136;48.822;7.966;2023-09-30T00:35:41;17.73;;;16.92;;
18021;SDS011;9136;48.822;7.966;2023-09-30T00:38:59;17.05;;;16.25;;
18021;SDS011;9136;48.822;7.966;2023-09-30T00:45:20;17.48;;;16.67;;
18021;SDS011;9136;48.822;7.966;2023-09-30T00:48:33;16.75;;;15.88;;
18021;SDS011;9136;48.822;7.966;2023-09-30T00:51:40;16.92;;;16.15;;
18021;SDS011;9136;48.822;7.966;2023-09-30T00:54:46;16.17;;;15.48;;
18021;SDS011;9136;48.822;7.966;2023-09-30T01:01:38;16.30;;;15.60;;
18021;SDS011;9136;48.822;7.966;2023-09-30T01:04:27;16.85;;;16.05;;
18021;SDS011;9136;48.822;7.966;2023-09-30T01:07:23;17.52;;;16.63;;
18021;SDS011;9136;48.822;7.966;2023-09-30T01:10:25;16.25;;;15.55;;
18021;SDS011;9136;48.822;7.966;2023-09-30T01:16:51;18.25;;;17.45;;
18021;SDS011;9136;48.822;7.966;2023-09-30T01:19:41;17.10;;;16.30;;
18021;SDS011;9136;48.822;7.966;2023-09-30T01:22:47;17.40;;;16.60;;
18021;SDS011;9136;48.822;7.966;2023-09-30T01:25:42;16.77;;;16.07;;
18021;SDS011;9136;48.822;7.966;2023-09-30T01:28:36;17.80;;;16.93;;
18021;SDS011;9136;48.822;7.966;2023-09-30T01:31:32;18.30;;;17.13;;
18021;SDS011;9136;48.822;7.966;2023-09-30T01:34:32;16.97;;;16.07;;
18021;SDS011;9136;48.822;7.966;2023-09-30T01:37:36;16.07;;;15.37;;
18021;SDS011;9136;48.822;7.966;2023-09-30T01:40:35;16.27;;;15.57;;
18021;SDS011;9136;48.822;7.966;2023-09-30T01:43:27;16.63;;;15.90;;
18021;SDS011;9136;48.822;7.966;2023-09-30T01:46:28;17.02;;;16.23;;
18021;SDS011;9136;48.822;7.966;2023-09-30T01:49:24;16.97;;;16.27;;
18021;SDS011;9136;48.822;7.966;2023-09-30T01:52:22;15.83;;;15.13;;
18021;SDS011;9136;48.822;7.966;2023-09-30T01:55:21;16.63;;;15.70;;
18021;SDS011;9136;48.822;7.966;2023-09-30T02:01:25;16.73;;;16.02;;
18021;SDS011;9136;48.822;7.966;2023-09-30T02:04:28;18.27;;;17.47;;
18021;SDS011;9136;48.822;7.966;2023-09-30T02:07:27;15.90;;;15.20;;
18021;SDS011;9136;48.822;7.966;2023-09-30T02:10:32;16.97;;;16.17;;
18021;SDS011;9136;48.822;7.966;2023-09-30T02:13:56;16.00;;;15.30;;
18021;SDS011;9136;48.822;7.966;2023-09-30T02:17:13;16.75;;;16.05;;
18021;SDS011;9136;48.822;7.966;2023-09-30T02:20:19;16.42;;;15.73;;
18021;SDS011;9136;48.822;7.966;2023-09-30T02:23:21;16.93;;;16.13;;
18021;SDS011;9136;48.822;7.966;2023-09-30T02:26:13;16.45;;;15.75;;
18021;SDS011;9136;48.822;7.966;2023-09-30T02:29:18;16.55;;;15.80;;
18021;SDS011;9136;48.822;7.966;2023-09-30T02:32:20;15.93;;;15.23;;
18021;SDS011;9136;48.822;7.966;2023-09-30T02:35:24;15.77;;;15.07;;
18021;SDS011;9136;48.822;7.966;2023-09-30T02:38:19;16.17;;;15.45;;
18021;SDS011;9136;48.822;7.966;2023-09-30T02:41:24;16.02;;;15.32;;
18021;SDS011;9136;48.822;7.966;2023-09-30T02:44:21;16.33;;;15.57;;
18021;SDS011;9136;48.822;7.966;2023-09-30T02:47:22;16.65;;;15.85;;
18021;SDS011;9136;48.822;7.966;2023-09-30T02:50:36;17.33;;;16.02;;
18021;SDS011;9136;48.822;7.966;2023-09-30T02:53:59;15.65;;;14.88;;
18021;SDS011;9136;48.822;7.966;2023-09-30T02:57:04;16.27;;;15.48;;
18021;SDS011;9136;48.822;7.966;2023-09-30T03:00:13;15.50;;;14.80;;
18021;SDS011;9136;48.822;7.966;2023-09-30T03:03:15;16.08;;;15.38;;
18021;SDS011;9136;48.822;7.966;2023-09-30T03:10:05;16.88;;;16.15;;
18021;SDS011;9136;48.822;7.966;2023-09-30T03:13:06;16.90;;;16.20;;
18021;SDS011;9136;48.822;7.966;2023-09-30T03:16:20;17.27;;;16.50;;
18021;SDS011;9136;48.822;7.966;2023-09-30T03:19:24;17.53;;;16.30;;
18021;SDS011;9136;48.822;7.966;2023-09-30T03:22:21;18.50;;;16.90;;
18021;SDS011;9136;48.822;7.966;2023-09-30T03:25:11;17.17;;;16.30;;
18021;SDS011;9136;48.822;7.966;2023-09-30T03:28:28;17.83;;;16.63;;
18021;SDS011;9136;48.822;7.966;2023-09-30T03:31:22;19.25;;;17.50;;
18021;SDS011;9136;48.822;7.966;2023-09-30T03:34:22;16.63;;;15.93;;
18021;SDS011;9136;48.822;7.966;2023-09-30T03:37:26;16.73;;;15.93;;
18021;SDS011;9136;48.822;7.966;2023-09-30T03:40:46;16.10;;;15.30;;
18021;SDS011;9136;48.822;7.966;2023-09-30T03:43:50;16.50;;;15.80;;
18021;SDS011;9136;48.822;7.966;2023-09-30T03:46:46;17.65;;;16.85;;
18021;SDS011;9136;48.822;7.966;2023-09-30T03:49:34;19.10;;;17.53;;
18021;SDS011;9136;48.822;7.966;2023-09-30T03:52:25;17.60;;;16.80;;
18021;SDS011;9136;48.822;7.966;2023-09-30T03:55:19;16.17;;;15.47;;
18021;SDS011;9136;48.822;7.966;2023-09-30T03:58:08;16.58;;;15.88;;
18021;SDS011;9136;48.822;7.966;2023-09-30T04:00:56;17.80;;;16.90;;
18021;SDS011;9136;48.822;7.966;2023-09-30T04:03:47;16.52;;;15.68;;
18021;SDS011;9136;48.822;7.966;2023-09-30T04:06:45;17.48;;;16.67;;
18021;SDS011;9136;48.822;7.966;2023-09-30T04:09:38;16.80;;;16.00;;
18021;SDS011;9136;48.822;7.966;2023-09-30T04:12:26;16.97;;;16.17;;
18021;SDS011;9136;48.822;7.966;2023-09-30T04:15:27;17.00;;;16.30;;
18021;SDS011;9136;48.822;7.966;2023-09-30T04:18:31;15.82;;;15.13;;
18021;SDS011;9136;48.822;7.966;2023-09-30T04:21:24;16.10;;;15.17;;
18021;SDS011;9136;48.822;7.966;2023-09-30T04:24:14;15.90;;;15.20;;
18021;SDS011;9136;48.822;7.966;2023-09-30T04:27:08;16.87;;;16.17;;
18021;SDS011;9136;48.822;7.966;2023-09-30T04:29:56;17.33;;;16.53;;
18021;SDS011;9136;48.822;7.966;2023-09-30T04:32:56;17.40;;;16.60;;
18021;SDS011;9136;48.822;7.966;2023-09-30T04:35:52;17.47;;;16.67;;
18021;SDS011;9136;48.822;7.966;2023-09-30T04:42:17;17.00;;;15.53;;
18021;SDS011;9136;48.822;7.966;2023-09-30T04:45:09;17.67;;;16.87;;
18021;SDS011;9136;48.822;7.966;2023-09-30T04:48:00;17.03;;;16.23;;
18021;SDS011;9136;48.822;7.966;2023-09-30T04:50:52;16.60;;;15.70;;
18021;SDS011;9136;48.822;7.966;2023-09-30T04:53:53;17.17;;;16.40;;
18021;SDS011;9136;48.822;7.966;2023-09-30T04:56:54;16.30;;;15.60;;
18021;SDS011;9136;48.822;7.966;2023-09-30T04:59:43;18.30;;;17.40;;
18021;SDS011;9136;48.822;7.966;2023-09-30T05:02:32;17.13;;;16.33;;
18021;SDS011;9136;48.822;7.966;2023-09-30T05:05:30;17.07;;;16.33;;
18021;SDS011;9136;48.822;7.966;2023-09-30T05:08:44;17.47;;;16.67;;
18021;SDS011;9136;48.822;7.966;2023-09-30T05:11:37;17.73;;;16.93;;
18021;SDS011;9136;48.822;7.966;2023-09-30T05:14:30;17.83;;;16.93;;
18021;SDS011;9136;48.822;7.966;2023-09-30T05:17:21;16.97;;;16.27;;
18021;SDS011;9136;48.822;7.966;2023-09-30T05:20:22;18.03;;;17.07;;
18021;SDS011;9136;48.822;7.966;2023-09-30T05:23:12;16.33;;;15.63;;
18021;SDS011;9136;48.822;7.966;2023-09-30T05:26:07;18.57;;;17.73;;
18021;SDS011;9136;48.822;7.966;2023-09-30T05:29:20;18.43;;;17.63;;
18021;SDS011;9136;48.822;7.966;2023-09-30T05:32:09;17.00;;;16.30;;
18021;SDS011;9136;48.822;7.966;2023-09-30T05:35:04;17.17;;;16.43;;
18021;SDS011;9136;48.822;7.966;2023-09-30T05:38:06;17.53;;;16.73;;
18021;SDS011;9136;48.822;7.966;2023-09-30T05:41:21;15.37;;;14.67;;
18021;SDS011;9136;48.822;7.966;2023-09-30T05:44:54;16.60;;;15.80;;
18021;SDS011;9136;48.822;7.966;2023-09-30T05:47:54;15.80;;;15.10;;
18021;SDS011;9136;48.822;7.966;2023-09-30T05:50:51;18.50;;;17.60;;
18021;SDS011;9136;48.822;7.966;2023-09-30T05:53:43;16.33;;;15.63;;
18021;SDS011;9136;48.822;7.966;2023-09-30T05:56:49;15.73;;;15.03;;
18021;SDS011;9136;48.822;7.966;2023-09-30T11:29:34;14.98;;;13.73;;
18021;SDS011;9136;48.822;7.966;2023-09-30T11:33:05;13.98;;;13.25;;
18021;SDS011;9136;48.822;7.966;2023-09-30T11:40:10;13.75;;;13.05;;
18021;SDS011;9136;48.822;7.966;2023-09-30T11:43:12;13.02;;;12.43;;
18021;SDS011;9136;48.822;7.966;2023-09-30T11:50:10;13.00;;;12.40;;
18021;SDS011;9136;48.822;7.966;2023-09-30T12:16:22;12.50;;;11.90;;
18021;SDS011;9136;48.822;7.966;2023-09-30T12:23:53;13.43;;;12.55;;
18021;SDS011;9136;48.822;7.966;2023-09-30T12:26:58;11.38;;;10.85;;
18021;SDS011;9136;48.822;7.966;2023-09-30T12:30:09;13.02;;;12.27;;
18021;SDS011;9136;48.822;7.966;2023-09-30T12:33:22;14.20;;;13.40;;
18021;SDS011;9136;48.822;7.966;2023-09-30T12:36:25;11.80;;;11.23;;
18021;SDS011;9136;48.822;7.966;2023-09-30T12:42:47;12.40;;;11.73;;
18021;SDS011;9136;48.822;7.966;2023-09-30T12:46:01;12.05;;;11.55;;
18021;SDS011;9136;48.822;7.966;2023-09-30T12:52:18;12.75;;;12.10;;
18021;SDS011;9136;48.822;7.966;2023-09-30T12:55:10;13.48;;;12.65;;
18021;SDS011;9136;48.822;7.966;2023-09-30T12:58:14;12.55;;;11.95;;
18021;SDS011;9136;48.822;7.966;2023-09-30T13:01:12;12.40;;;11.80;;
18021;SDS011;9136;48.822;7.966;2023-09-30T13:04:09;14.77;;;13.43;;
18021;SDS011;9136;48.822;7.966;2023-09-30T13:07:01;12.73;;;12.02;;
18021;SDS011;9136;48.822;7.966;2023-09-30T13:10:22;12.30;;;11.60;;
18021;SDS011;9136;48.822;7.966;2023-09-30T13:13:09;12.52;;;11.95;;
18021;SDS011;9136;48.822;7.966;2023-09-30T13:16:01;12.02;;;11.52;;
18021;SDS011;9136;48.822;7.966;2023-09-30T13:18:58;11.88;;;11.27;;
18021;SDS011;9136;48.822;7.966;2023-09-30T13:25:05;11.63;;;10.80;;
18021;SDS011;9136;48.822;7.966;2023-09-30T13:28:10;12.63;;;12.02;;
18021;SDS011;9136;48.822;7.966;2023-09-30T13:31:00;13.27;;;12.25;;
18021;SDS011;9136;48.822;7.966;2023-09-30T13:33:55;12.43;;;11.68;;
18021;SDS011;9136;48.822;7.966;2023-09-30T13:37:57;13.10;;;12.50;;
18021;SDS011;9136;48.822;7.966;2023-09-30T13:40:33;13.63;;;12.85;;
18021;SDS011;9136;48.822;7.966;2023-09-30T13:43:23;13.27;;;12.68;;
18021;SDS011;9136;48.822;7.966;2023-09-30T13:46:15;13.23;;;12.63;;
18021;SDS011;9136;48.822;7.966;2023-09-30T13:49:16;13.48;;;12.88;;
18021;SDS011;9136;48.822;7.966;2023-09-30T13:52:14;13.32;;;12.73;;
18021;SDS011;9136;48.822;7.966;2023-09-30T13:55:04;14.18;;;13.38;;
18021;SDS011;9136;48.822;7.966;2023-09-30T13:57:56;13.55;;;12.95;;
18021;SDS011;9136;48.822;7.966;2023-09-30T14:00:46;12.02;;;11.43;;
18021;SDS011;9136;48.822;7.966;2023-09-30T14:03:41;12.80;;;12.25;;
18021;SDS011;9136;48.822;7.966;2023-09-30T14:06:46;13.93;;;13.20;;
18021;SDS011;9136;48.822;7.966;2023-09-30T14:09:38;13.32;;;12.73;;
18021;SDS011;9136;48.822;7.966;2023-09-30T14:12:28;12.25;;;11.65;;
18021;SDS011;9136;48.822;7.966;2023-09-30T14:15:18;12.27;;;11.68;;
18021;SDS011;9136;48.822;7.966;2023-09-30T14:18:06;13.05;;;12.40;;
18021;SDS011;9136;48.822;7.966;2023-09-30T14:20:56;12.52;;;11.95;;
18021;SDS011;9136;48.822;7.966;2023-09-30T14:23:44;12.80;;;12.20;;
18021;SDS011;9136;48.822;7.966;2023-09-30T14:26:32;12.13;;;11.63;;
18021;SDS011;9136;48.822;7.966;2023-09-30T14:29:20;12.23;;;11.63;;
18021;SDS011;9136;48.822;7.966;2023-09-30T14:32:09;12.15;;;11.63;;
18021;SDS011;9136;48.822;7.966;2023-09-30T14:34:59;13.25;;;12.52;;
18021;SDS011;9136;48.822;7.966;2023-09-30T14:37:51;13.52;;;12.88;;
18021;SDS011;9136;48.822;7.966;2023-09-30T14:40:40;13.73;;;12.77;;
18021;SDS011;9136;48.822;7.966;2023-09-30T14:43:28;13.20;;;12.50;;
18021;SDS011;9136;48.822;7.966;2023-09-30T14:46:18;13.63;;;12.93;;
18021;SDS011;9136;48.822;7.966;2023-09-30T14:49:10;12.40;;;11.68;;
18021;SDS011;9136;48.822;7.966;2023-09-30T14:52:00;12.15;;;11.50;;
18021;SDS011;9136;48.822;7.966;2023-09-30T14:54:53;14.02;;;13.32;;
18021;SDS011;9136;48.822;7.966;2023-09-30T14:57:41;12.38;;;11.88;;
18021;SDS011;9136;48.822;7.966;2023-09-30T15:00:33;13.20;;;12.27;;
18021;SDS011;9136;48.822;7.966;2023-09-30T15:03:21;13.13;;;12.32;;
18021;SDS011;9136;48.822;7.966;2023-09-30T15:06:12;13.00;;;12.27;;
18021;SDS011;9136;48.822;7.966;2023-09-30T16:07:55;13.85;;;13.25;;
18021;SDS011;9136;48.822;7.966;2023-09-30T16:10:46;12.77;;;12.18;;
18021;SDS011;9136;48.822;7.966;2023-09-30T16:13:34;13.32;;;12.63;;
18021;SDS011;9136;48.822;7.966;2023-09-30T16:16:28;14.93;;;13.40;;
18021;SDS011;9136;48.822;7.966;2023-09-30T16:19:19;12.70;;;12.10;;
18021;SDS011;9136;48.822;7.966;2023-09-30T16:22:07;13.88;;;13.27;;
18021;SDS011;9136;48.822;7.966;2023-09-30T16:24:57;12.77;;;12.18;;
18021;SDS011;9136;48.822;7.966;2023-09-30T16:27:46;13.25;;;12.65;;
18021;SDS011;9136;48.822;7.966;2023-09-30T16:30:35;12.65;;;12.05;;
18021;SDS011;9136;48.822;7.966;2023-09-30T16:33:29;14.63;;;13.82;;
18021;SDS011;9136;48.822;7.966;2023-09-30T16:36:17;14.85;;;14.10;;
18021;SDS011;9136;48.822;7.966;2023-09-30T16:39:05;14.30;;;13.50;;
18021;SDS011;9136;48.822;7.966;2023-09-30T16:45:20;15.45;;;14.65;;
18021;SDS011;9136;48.822;7.966;2023-09-30T16:48:15;16.27;;;15.57;;
18021;SDS011;9136;48.822;7.966;2023-09-30T16:51:10;16.10;;;15.40;;
18021;SDS011;9136;48.822;7.966;2023-09-30T16:54:05;14.60;;;13.90;;
18021;SDS011;9136;48.822;7.966;2023-09-30T16:57:04;15.25;;;14.55;;
18021;SDS011;9136;48.822;7.966;2023-09-30T17:00:05;15.77;;;15.05;;
18021;SDS011;9136;48.822;7.966;2023-09-30T17:06:07;15.85;;;15.05;;
18021;SDS011;9136;48.822;7.966;2023-09-30T17:08:55;16.27;;;15.52;;
18021;SDS011;9136;48.822;7.966;2023-09-30T17:11:43;17.17;;;16.38;;
18021;SDS011;9136;48.822;7.966;2023-09-30T17:14:32;15.73;;;15.02;;
18021;SDS011;9136;48.822;7.966;2023-09-30T17:17:24;15.43;;;14.73;;
18021;SDS011;9136;48.822;7.966;2023-09-30T17:20:16;14.63;;;14.02;;
18021;SDS011;9136;48.822;7.966;2023-09-30T17:23:10;15.18;;;14.48;;
18021;SDS011;9136;48.822;7.966;2023-09-30T17:26:05;16.45;;;15.65;;
18021;SDS011;9136;48.822;7.966;2023-09-30T17:28:53;16.52;;;15.73;;
18021;SDS011;9136;48.822;7.966;2023-09-30T17:31:41;16.55;;;15.43;;
18021;SDS011;9136;48.822;7.966;2023-09-30T17:34:30;16.02;;;15.13;;
18021;SDS011;9136;48.822;7.966;2023-09-30T17:37:20;15.15;;;14.43;;
18021;SDS011;9136;48.822;7.966;2023-09-30T17:40:08;16.60;;;15.82;;
18021;SDS011;9136;48.822;7.966;2023-09-30T17:42:57;16.55;;;15.65;;
18021;SDS011;9136;48.822;7.966;2023-09-30T17:45:45;16.38;;;15.57;;
18021;SDS011;9136;48.822;7.966;2023-09-30T17:48:33;17.70;;;16.25;;
18021;SDS011;9136;48.822;7.966;2023-09-30T17:51:21;16.67;;;15.68;;
18021;SDS011;9136;48.822;7.966;2023-09-30T17:54:11;17.30;;;16.50;;
18021;SDS011;9136;48.822;7.966;2023-09-30T17:56:59;14.88;;;14.18;;
18021;SDS011;9136;48.822;7.966;2023-09-30T17:59:47;16.75;;;15.95;;
18021;SDS011;9136;48.822;7.966;2023-09-30T18:02:35;16.08;;;15.27;;
18021;SDS011;9136;48.822;7.966;2023-09-30T18:05:24;17.15;;;16.23;;
18021;SDS011;9136;48.822;7.966;2023-09-30T18:08:12;16.92;;;16.02;;
18021;SDS011;9136;48.822;7.966;2023-09-30T18:11:01;17.73;;;16.83;;
18021;SDS011;9136;48.822;7.966;2023-09-30T18:13:49;16.50;;;15.63;;
18021;SDS011;9136;48.822;7.966;2023-09-30T18:16:37;16.90;;;16.07;;
18021;SDS011;9136;48.822;7.966;2023-09-30T18:19:26;16.65;;;15.75;;
18021;SDS011;9136;48.822;7.966;2023-09-30T18:22:14;16.13;;;15.32;;
18021;SDS011;9136;48.822;7.966;2023-09-30T18:25:05;16.33;;;15.43;;
18021;SDS011;9136;48.822;7.966;2023-09-30T18:27:56;15.50;;;14.80;;
18021;SDS011;9136;48.822;7.966;2023-09-30T18:30:44;18.17;;;16.90;;
18021;SDS011;9136;48.822;7.966;2023-09-30T18:33:33;15.57;;;14.87;;
18021;SDS011;9136;48.822;7.966;2023-09-30T18:36:21;17.40;;;16.20;;
18021;SDS011;9136;48.822;7.966;2023-09-30T18:39:09;16.17;;;15.07;;
18021;SDS011;9136;48.822;7.966;2023-09-30T18:41:58;16.80;;;15.97;;
18021;SDS011;9136;48.822;7.966;2023-09-30T18:44:47;17.07;;;16.23;;
18021;SDS011;9136;48.822;7.966;2023-09-30T18:47:36;15.90;;;15.10;;
18021;SDS011;9136;48.822;7.966;2023-09-30T18:50:24;16.80;;;16.00;;
18021;SDS011;9136;48.822;7.966;2023-09-30T18:53:12;16.90;;;15.97;;
18021;SDS011;9136;48.822;7.966;2023-09-30T18:56:00;17.30;;;16.30;;
18021;SDS011;9136;48.822;7.966;2023-09-30T18:58:48;16.63;;;15.73;;
18021;SDS011;9136;48.822;7.966;2023-09-30T19:01:38;17.70;;;16.70;;
18021;SDS011;9136;48.822;7.966;2023-09-30T19:04:26;15.57;;;14.80;;
18021;SDS011;9136;48.822;7.966;2023-09-30T19:07:14;16.53;;;15.73;;
18021;SDS011;9136;48.822;7.966;2023-09-30T19:10:02;18.17;;;17.30;;
18021;SDS011;9136;48.822;7.966;2023-09-30T19:12:53;16.60;;;15.50;;
18021;SDS011;9136;48.822;7.966;2023-09-30T19:15:41;17.60;;;16.73;;
18021;SDS011;9136;48.822;7.966;2023-09-30T19:18:31;16.77;;;15.97;;
18021;SDS011;9136;48.822;7.966;2023-09-30T19:21:19;17.30;;;16.13;;
18021;SDS011;9136;48.822;7.966;2023-09-30T19:24:07;16.70;;;15.70;;
18021;SDS011;9136;48.822;7.966;2023-09-30T19:26:56;17.70;;;16.80;;
18021;SDS011;9136;48.822;7.966;2023-09-30T19:29:44;15.90;;;15.17;;
18021;SDS011;9136;48.822;7.966;2023-09-30T19:32:35;16.67;;;15.87;;
18021;SDS011;9136;48.822;7.966;2023-09-30T19:35:25;16.70;;;15.87;;
18021;SDS011;9136;48.822;7.966;2023-09-30T19:38:13;16.27;;;15.57;;
18021;SDS011;9136;48.822;7.966;2023-09-30T19:41:01;15.73;;;14.97;;
18021;SDS011;9136;48.822;7.966;2023-09-30T19:43:51;17.37;;;16.47;;
18021;SDS011;9136;48.822;7.966;2023-09-30T19:46:39;16.90;;;16.00;;
18021;SDS011;9136;48.822;7.966;2023-09-30T19:49:29;18.47;;;17.47;;
18021;SDS011;9136;48.822;7.966;2023-09-30T19:52:19;17.40;;;16.60;;
18021;SDS011;9136;48.822;7.966;2023-09-30T19:55:14;17.00;;;16.10;;
18021;SDS011;9136;48.822;7.966;2023-09-30T19:58:02;18.77;;;17.47;;
18021;SDS011;9136;48.822;7.966;2023-09-30T20:00:50;17.93;;;17.03;;
18021;SDS011;9136;48.822;7.966;2023-09-30T20:03:38;16.87;;;16.00;;
18021;SDS011;9136;48.822;7.966;2023-09-30T20:06:29;17.67;;;16.87;;
18021;SDS011;9136;48.822;7.966;2023-09-30T20:09:19;16.53;;;15.83;;
18021;SDS011;9136;48.822;7.966;2023-09-30T20:12:09;16.23;;;15.47;;
18021;SDS011;9136;48.822;7.966;2023-09-30T20:14:58;17.87;;;17.07;;
18021;SDS011;9136;48.822;7.966;2023-09-30T20:17:46;17.27;;;16.37;;
18021;SDS011;9136;48.822;7.966;2023-09-30T20:20:35;17.87;;;17.07;;
18021;SDS011;9136;48.822;7.966;2023-09-30T20:23:27;17.43;;;16.53;;
18021;SDS011;9136;48.822;7.966;2023-09-30T20:26:17;18.67;;;17.67;;
18021;SDS011;9136;48.822;7.966;2023-09-30T20:29:09;18.30;;;17.40;;
18021;SDS011;9136;48.822;7.966;2023-09-30T20:31:57;17.73;;;16.83;;
18021;SDS011;9136;48.822;7.966;2023-09-30T20:34:46;22.27;;;19.37;;
18021;SDS011;9136;48.822;7.966;2023-09-30T20:37:34;17.50;;;16.70;;
18021;SDS011;9136;48.822;7.966;2023-09-30T20:40:23;18.33;;;17.27;;
18021;SDS011;9136;48.822;7.966;2023-09-30T20:43:13;18.90;;;17.90;;
18021;SDS011;9136;48.822;7.966;2023-09-30T20:46:02;18.60;;;17.63;;
18021;SDS011;9136;48.822;7.966;2023-09-30T20:48:50;16.80;;;16.00;;
18021;SDS011;9136;48.822;7.966;2023-09-30T20:51:39;18.17;;;17.27;;
18021;SDS011;9136;48.822;7.966;2023-09-30T20:54:28;16.63;;;15.83;;
18021;SDS011;9136;48.822;7.966;2023-09-30T20:57:16;17.77;;;16.77;;
18021;SDS011;9136;48.822;7.966;2023-09-30T21:00:07;18.27;;;17.20;;
18021;SDS011;9136;48.822;7.966;2023-09-30T21:02:59;17.37;;;16.57;;
18021;SDS011;9136;48.822;7.966;2023-09-30T21:05:48;16.57;;;15.70;;
18021;SDS011;9136;48.822;7.966;2023-09-30T21:08:39;18.80;;;17.70;;
18021;SDS011;9136;48.822;7.966;2023-09-30T21:11:27;17.50;;;16.67;;
18021;SDS011;9136;48.822;7.966;2023-09-30T21:14:15;16.77;;;15.97;;
18021;SDS011;9136;48.822;7.966;2023-09-30T21:17:05;18.87;;;17.97;;
18021;SDS011;9136;48.822;7.966;2023-09-30T21:19:55;18.60;;;17.43;;
18021;SDS011;9136;48.822;7.966;2023-09-30T21:22:44;17.63;;;16.63;;
18021;SDS011;9136;48.822;7.966;2023-09-30T21:25:33;18.27;;;17.37;;
18021;SDS011;9136;48.822;7.966;2023-09-30T21:28:21;18.23;;;17.33;;
18021;SDS011;9136;48.822;7.966;2023-09-30T21:31:13;19.70;;;18.63;;
18021;SDS011;9136;48.822;7.966;2023-09-30T21:34:03;18.67;;;17.77;;
18021;SDS011;9136;48.822;7.966;2023-09-30T21:36:54;18.67;;;17.67;;
18021;SDS011;9136;48.822;7.966;2023-09-30T21:39:42;17.73;;;16.93;;
18021;SDS011;9136;48.822;7.966;2023-09-30T21:53:16;16.40;;;15.70;;
18021;SDS011;9136;48.822;7.966;2023-09-30T21:56:04;18.57;;;17.60;;
18021;SDS011;9136;48.822;7.966;2023-09-30T21:58:54;16.53;;;15.83;;
18021;SDS011;9136;48.822;7.966;2023-09-30T22:01:44;18.10;;;17.10;;
18021;SDS011;9136;48.822;7.966;2023-09-30T22:04:33;18.70;;;17.80;;
18021;SDS011;9136;48.822;7.966;2023-09-30T22:07:21;17.73;;;16.73;;
18021;SDS011;9136;48.822;7.966;2023-09-30T22:10:15;18.00;;;16.77;;
18021;SDS011;9136;48.822;7.966;2023-09-30T22:13:03;18.93;;;17.93;;
18021;SDS011;9136;48.822;7.966;2023-09-30T22:15:51;19.10;;;18.20;;
18021;SDS011;9136;48.822;7.966;2023-09-30T22:18:39;20.13;;;19.13;;
18021;SDS011;9136;48.822;7.966;2023-09-30T22:21:28;16.63;;;15.93;;
18021;SDS011;9136;48.822;7.966;2023-09-30T22:24:17;18.33;;;17.43;;
18021;SDS011;9136;48.822;7.966;2023-09-30T22:27:06;20.80;;;19.47;;
18021;SDS011;9136;48.822;7.966;2023-09-30T22:29:55;18.33;;;17.20;;
18021;SDS011;9136;48.822;7.966;2023-09-30T22:32:44;17.97;;;17.17;;
18021;SDS011;9136;48.822;7.966;2023-09-30T22:35:33;16.90;;;15.97;;
18021;SDS011;9136;48.822;7.966;2023-09-30T22:38:22;17.57;;;16.77;;
18021;SDS011;9136;48.822;7.966;2023-09-30T22:41:10;17.67;;;16.77;;
18021;SDS011;9136;48.822;7.966;2023-09-30T22:43:59;17.60;;;16.80;;
18021;SDS011;9136;48.822;7.966;2023-09-30T22:46:47;18.57;;;17.77;;
18021;SDS011;9136;48.822;7.966;2023-09-30T22:49:35;18.90;;;17.90;;
18021;SDS011;9136;48.822;7.966;2023-09-30T22:52:23;18.97;;;18.07;;
18021;SDS011;9136;48.822;7.966;2023-09-30T22:55:11;17.93;;;17.13;;
18021;SDS011;9136;48.822;7.966;2023-09-30T22:58:00;16.70;;;16.00;;
18021;SDS011;9136;48.822;7.966;2023-09-30T23:00:50;18.10;;;17.23;;
18021;SDS011;9136;48.822;7.966;2023-09-30T23:03:39;18.73;;;17.93;;
18021;SDS011;9136;48.822;7.966;2023-09-30T23:06:26;18.37;;;17.37;;
18021;SDS011;9136;48.822;7.966;2023-09-30T23:09:14;18.83;;;17.83;;
18021;SDS011;9136;48.822;7.966;2023-09-30T23:12:08;17.13;;;16.33;;
18021;SDS011;9136;48.822;7.966;2023-09-30T23:14:56;18.53;;;17.57;;
18021;SDS011;9136;48.822;7.966;2023-09-30T23:17:47;18.10;;;17.27;;
18021;SDS011;9136;48.822;7.966;2023-09-30T23:20:37;18.27;;;16.93;;
18021;SDS011;9136;48.822;7.966;2023-09-30T23:23:26;17.63;;;16.83;;
18021;SDS011;9136;48.822;7.966;2023-09-30T23:26:14;17.53;;;16.57;;
18021;SDS011;9136;48.822;7.966;2023-09-30T23:29:04;20.90;;;19.73;;
18021;SDS011;9136;48.822;7.966;2023-09-30T23:31:54;18.27;;;17.37;;
18021;SDS011;9136;48.822;7.966;2023-09-30T23:34:45;19.47;;;18.57;;
18021;SDS011;9136;48.822;7.966;2023-09-30T23:37:33;18.43;;;17.63;;
18021;SDS011;9136;48.822;7.966;2023-09-30T23:40:23;17.73;;;16.83;;
18021;SDS011;9136;48.822;7.966;2023-09-30T23:43:11;17.23;;;16.43;;
18021;SDS011;9136;48.822;7.966;2023-09-30T23:46:01;19.47;;;18.50;;
18021;SDS011;9136;48.822;7.966;2023-09-30T23:48:50;18.23;;;17.33;;
18021;SDS011;9136;48.822;7.966;2023-09-30T23:51:39;18.10;;;17.20;;
18021;SDS011;9136;48.822;7.966;2023-09-30T23:54:30;17.40;;;16.60;;
18021;SDS011;9136;48.822;7.966;2023-09-30T23:57:19;20.43;;;18.93;;
